sensor_id;sensor_type;location;lat;lon;timestamp;P1;durP1;ratioP1;P2;durP2;ratioP2
63817;SDS011;53093;55.092;73.476;2022-07-21T00:00:32;52.45;;;37.03;;
63817;SDS011;53093;55.092;73.476;2022-07-21T00:02:59;54.72;;;37.58;;
63817;SDS011;53093;55.092;73.476;2022-07-21T00:05:31;50.88;;;36.85;;
63817;SDS011;53093;55.092;73.476;2022-07-21T00:08:04;53.85;;;37.25;;
63817;SDS011;53093;55.092;73.476;2022-07-21T00:10:36;50.83;;;36.63;;
63817;SDS011;53093;55.092;73.476;2022-07-21T00:13:04;49.00;;;37.25;;
63817;SDS011;53093;55.092;73.476;2022-07-21T00:15:31;50.92;;;36.53;;
63817;SDS011;53093;55.092;73.476;2022-07-21T00:17:58;45.70;;;35.53;;
63817;SDS011;53093;55.092;73.476;2022-07-21T00:20:25;49.47;;;36.20;;
63817;SDS011;53093;55.092;73.476;2022-07-21T00:22:54;46.42;;;36.20;;
63817;SDS011;53093;55.092;73.476;2022-07-21T00:25:31;44.05;;;35.42;;
63817;SDS011;53093;55.092;73.476;2022-07-21T00:28:09;42.92;;;34.35;;
63817;SDS011;53093;55.092;73.476;2022-07-21T00:30:36;42.13;;;33.83;;
63817;SDS011;53093;55.092;73.476;2022-07-21T00:33:03;43.95;;;33.95;;
63817;SDS011;53093;55.092;73.476;2022-07-21T00:35:30;41.58;;;33.92;;
63817;SDS011;53093;55.092;73.476;2022-07-21T00:37:58;40.58;;;32.08;;
63817;SDS011;53093;55.092;73.476;2022-07-21T00:40:25;38.25;;;32.45;;
63817;SDS011;53093;55.092;73.476;2022-07-21T00:42:52;39.58;;;32.65;;
63817;SDS011;53093;55.092;73.476;2022-07-21T00:45:19;38.47;;;31.55;;
63817;SDS011;53093;55.092;73.476;2022-07-21T00:47:46;38.33;;;31.42;;
63817;SDS011;53093;55.092;73.476;2022-07-21T00:50:15;37.53;;;30.52;;
63817;SDS011;53093;55.092;73.476;2022-07-21T00:52:43;37.30;;;31.50;;
63817;SDS011;53093;55.092;73.476;2022-07-21T00:55:11;34.70;;;30.02;;
63817;SDS011;53093;55.092;73.476;2022-07-21T00:57:38;35.38;;;30.85;;
63817;SDS011;53093;55.092;73.476;2022-07-21T01:00:07;34.05;;;30.35;;
63817;SDS011;53093;55.092;73.476;2022-07-21T01:02:35;34.10;;;30.33;;
63817;SDS011;53093;55.092;73.476;2022-07-21T01:05:06;34.83;;;29.55;;
63817;SDS011;53093;55.092;73.476;2022-07-21T01:07:34;34.33;;;28.63;;
63817;SDS011;53093;55.092;73.476;2022-07-21T01:10:01;34.67;;;30.90;;
63817;SDS011;53093;55.092;73.476;2022-07-21T01:12:28;31.17;;;27.83;;
63817;SDS011;53093;55.092;73.476;2022-07-21T01:14:55;33.78;;;29.23;;
63817;SDS011;53093;55.092;73.476;2022-07-21T01:17:23;32.08;;;28.65;;
63817;SDS011;53093;55.092;73.476;2022-07-21T01:19:50;32.53;;;28.70;;
63817;SDS011;53093;55.092;73.476;2022-07-21T01:22:18;31.95;;;28.58;;
63817;SDS011;53093;55.092;73.476;2022-07-21T01:24:45;31.10;;;27.88;;
63817;SDS011;53093;55.092;73.476;2022-07-21T01:27:12;32.63;;;29.00;;
63817;SDS011;53093;55.092;73.476;2022-07-21T01:29:39;31.52;;;28.15;;
63817;SDS011;53093;55.092;73.476;2022-07-21T01:32:06;31.00;;;27.70;;
63817;SDS011;53093;55.092;73.476;2022-07-21T01:34:33;30.70;;;27.40;;
63817;SDS011;53093;55.092;73.476;2022-07-21T01:37:00;30.90;;;27.38;;
63817;SDS011;53093;55.092;73.476;2022-07-21T01:39:27;29.70;;;26.70;;
63817;SDS011;53093;55.092;73.476;2022-07-21T01:42:13;29.98;;;26.77;;
63817;SDS011;53093;55.092;73.476;2022-07-21T01:44:44;29.55;;;25.75;;
63817;SDS011;53093;55.092;73.476;2022-07-21T01:47:18;31.38;;;26.02;;
63817;SDS011;53093;55.092;73.476;2022-07-21T01:49:56;28.02;;;25.05;;
63817;SDS011;53093;55.092;73.476;2022-07-21T01:52:23;28.17;;;25.48;;
63817;SDS011;53093;55.092;73.476;2022-07-21T01:54:50;28.35;;;25.52;;
63817;SDS011;53093;55.092;73.476;2022-07-21T01:57:18;29.02;;;26.02;;
63817;SDS011;53093;55.092;73.476;2022-07-21T01:59:45;28.10;;;25.05;;
63817;SDS011;53093;55.092;73.476;2022-07-21T02:02:12;26.90;;;24.30;;
63817;SDS011;53093;55.092;73.476;2022-07-21T02:04:39;42.42;;;25.60;;
63817;SDS011;53093;55.092;73.476;2022-07-21T02:07:06;27.75;;;24.83;;
63817;SDS011;53093;55.092;73.476;2022-07-21T02:09:33;26.33;;;23.65;;
63817;SDS011;53093;55.092;73.476;2022-07-21T02:12:00;25.70;;;23.20;;
63817;SDS011;53093;55.092;73.476;2022-07-21T02:14:27;25.75;;;23.08;;
63817;SDS011;53093;55.092;73.476;2022-07-21T02:16:55;26.77;;;24.05;;
63817;SDS011;53093;55.092;73.476;2022-07-21T02:19:22;30.33;;;24.20;;
63817;SDS011;53093;55.092;73.476;2022-07-21T02:21:49;26.92;;;24.25;;
63817;SDS011;53093;55.092;73.476;2022-07-21T02:24:16;27.40;;;24.48;;
63817;SDS011;53093;55.092;73.476;2022-07-21T02:26:43;38.50;;;25.33;;
63817;SDS011;53093;55.092;73.476;2022-07-21T02:29:10;27.42;;;24.10;;
63817;SDS011;53093;55.092;73.476;2022-07-21T02:31:37;26.33;;;23.58;;
63817;SDS011;53093;55.092;73.476;2022-07-21T02:34:04;26.42;;;23.80;;
63817;SDS011;53093;55.092;73.476;2022-07-21T02:36:33;26.70;;;23.90;;
63817;SDS011;53093;55.092;73.476;2022-07-21T02:39:00;25.75;;;22.90;;
63817;SDS011;53093;55.092;73.476;2022-07-21T02:41:27;24.45;;;21.95;;
63817;SDS011;53093;55.092;73.476;2022-07-21T02:43:54;24.48;;;22.05;;
63817;SDS011;53093;55.092;73.476;2022-07-21T02:46:21;24.88;;;22.42;;
63817;SDS011;53093;55.092;73.476;2022-07-21T02:48:48;25.02;;;22.42;;
63817;SDS011;53093;55.092;73.476;2022-07-21T02:51:15;23.98;;;21.48;;
63817;SDS011;53093;55.092;73.476;2022-07-21T02:53:43;23.88;;;21.38;;
63817;SDS011;53093;55.092;73.476;2022-07-21T02:56:10;24.75;;;21.85;;
63817;SDS011;53093;55.092;73.476;2022-07-21T02:58:37;25.23;;;21.80;;
63817;SDS011;53093;55.092;73.476;2022-07-21T03:01:05;29.88;;;22.08;;
63817;SDS011;53093;55.092;73.476;2022-07-21T03:03:33;24.02;;;21.58;;
63817;SDS011;53093;55.092;73.476;2022-07-21T03:06:00;22.33;;;20.25;;
63817;SDS011;53093;55.092;73.476;2022-07-21T03:08:28;23.70;;;21.30;;
63817;SDS011;53093;55.092;73.476;2022-07-21T03:10:58;23.48;;;20.83;;
63817;SDS011;53093;55.092;73.476;2022-07-21T03:13:25;24.35;;;21.77;;
63817;SDS011;53093;55.092;73.476;2022-07-21T03:15:52;25.75;;;23.08;;
63817;SDS011;53093;55.092;73.476;2022-07-21T03:18:20;26.00;;;23.30;;
63817;SDS011;53093;55.092;73.476;2022-07-21T03:20:47;26.38;;;23.55;;
63817;SDS011;53093;55.092;73.476;2022-07-21T03:23:20;25.95;;;21.40;;
63817;SDS011;53093;55.092;73.476;2022-07-21T03:25:47;26.02;;;23.08;;
63817;SDS011;53093;55.092;73.476;2022-07-21T03:28:14;25.33;;;22.63;;
63817;SDS011;53093;55.092;73.476;2022-07-21T03:30:41;25.67;;;23.08;;
63817;SDS011;53093;55.092;73.476;2022-07-21T03:33:08;23.98;;;21.38;;
63817;SDS011;53093;55.092;73.476;2022-07-21T03:35:35;25.05;;;22.48;;
63817;SDS011;53093;55.092;73.476;2022-07-21T03:38:03;23.85;;;21.45;;
63817;SDS011;53093;55.092;73.476;2022-07-21T03:40:31;48.58;;;22.63;;
63817;SDS011;53093;55.092;73.476;2022-07-21T03:42:59;24.20;;;21.48;;
63817;SDS011;53093;55.092;73.476;2022-07-21T03:45:27;24.60;;;21.95;;
63817;SDS011;53093;55.092;73.476;2022-07-21T03:47:57;24.38;;;21.55;;
63817;SDS011;53093;55.092;73.476;2022-07-21T03:50:24;23.98;;;21.42;;
63817;SDS011;53093;55.092;73.476;2022-07-21T03:52:51;23.17;;;20.30;;
63817;SDS011;53093;55.092;73.476;2022-07-21T03:55:18;23.67;;;21.17;;
63817;SDS011;53093;55.092;73.476;2022-07-21T03:57:49;23.52;;;20.85;;
63817;SDS011;53093;55.092;73.476;2022-07-21T04:00:20;28.50;;;20.75;;
63817;SDS011;53093;55.092;73.476;2022-07-21T04:02:47;25.77;;;20.08;;
63817;SDS011;53093;55.092;73.476;2022-07-21T04:05:15;23.15;;;20.00;;
63817;SDS011;53093;55.092;73.476;2022-07-21T04:07:43;23.85;;;19.08;;
63817;SDS011;53093;55.092;73.476;2022-07-21T04:10:11;21.23;;;19.17;;
63817;SDS011;53093;55.092;73.476;2022-07-21T04:12:39;21.10;;;18.90;;
63817;SDS011;53093;55.092;73.476;2022-07-21T04:15:07;22.27;;;18.85;;
63817;SDS011;53093;55.092;73.476;2022-07-21T04:17:37;21.27;;;19.13;;
63817;SDS011;53093;55.092;73.476;2022-07-21T04:20:07;20.10;;;18.10;;
63817;SDS011;53093;55.092;73.476;2022-07-21T04:22:34;21.35;;;19.15;;
63817;SDS011;53093;55.092;73.476;2022-07-21T04:25:07;37.97;;;20.05;;
63817;SDS011;53093;55.092;73.476;2022-07-21T04:27:34;18.17;;;16.15;;
63817;SDS011;53093;55.092;73.476;2022-07-21T04:30:12;18.00;;;15.98;;
63817;SDS011;53093;55.092;73.476;2022-07-21T04:32:39;17.60;;;16.00;;
63817;SDS011;53093;55.092;73.476;2022-07-21T04:35:07;20.58;;;16.60;;
63817;SDS011;53093;55.092;73.476;2022-07-21T04:37:34;18.70;;;16.88;;
63817;SDS011;53093;55.092;73.476;2022-07-21T04:40:02;21.38;;;16.38;;
63817;SDS011;53093;55.092;73.476;2022-07-21T04:42:30;17.38;;;15.50;;
63817;SDS011;53093;55.092;73.476;2022-07-21T04:44:57;18.67;;;16.88;;
63817;SDS011;53093;55.092;73.476;2022-07-21T04:47:24;35.60;;;16.30;;
63817;SDS011;53093;55.092;73.476;2022-07-21T04:49:50;18.33;;;16.33;;
63817;SDS011;53093;55.092;73.476;2022-07-21T04:52:17;17.83;;;15.98;;
63817;SDS011;53093;55.092;73.476;2022-07-21T04:54:44;31.92;;;17.85;;
63817;SDS011;53093;55.092;73.476;2022-07-21T04:57:21;22.77;;;17.33;;
63817;SDS011;53093;55.092;73.476;2022-07-21T04:59:54;17.40;;;15.73;;
63817;SDS011;53093;55.092;73.476;2022-07-21T05:02:25;18.00;;;16.17;;
63817;SDS011;53093;55.092;73.476;2022-07-21T05:04:52;17.25;;;15.70;;
63817;SDS011;53093;55.092;73.476;2022-07-21T05:07:19;18.25;;;16.63;;
63817;SDS011;53093;55.092;73.476;2022-07-21T05:09:46;17.48;;;15.95;;
63817;SDS011;53093;55.092;73.476;2022-07-21T05:12:12;15.82;;;14.45;;
63817;SDS011;53093;55.092;73.476;2022-07-21T05:14:49;17.23;;;15.63;;
63817;SDS011;53093;55.092;73.476;2022-07-21T05:17:17;15.52;;;14.10;;
63817;SDS011;53093;55.092;73.476;2022-07-21T05:19:54;15.77;;;14.18;;
63817;SDS011;53093;55.092;73.476;2022-07-21T05:22:26;17.30;;;14.55;;
63817;SDS011;53093;55.092;73.476;2022-07-21T05:24:53;15.15;;;13.75;;
63817;SDS011;53093;55.092;73.476;2022-07-21T05:27:19;19.02;;;14.10;;
63817;SDS011;53093;55.092;73.476;2022-07-21T05:29:46;18.48;;;13.68;;
63817;SDS011;53093;55.092;73.476;2022-07-21T05:32:13;22.05;;;13.23;;
63817;SDS011;53093;55.092;73.476;2022-07-21T05:34:41;13.77;;;12.50;;
63817;SDS011;53093;55.092;73.476;2022-07-21T05:37:08;14.18;;;12.85;;
63817;SDS011;53093;55.092;73.476;2022-07-21T05:39:45;15.57;;;13.00;;
63817;SDS011;53093;55.092;73.476;2022-07-21T05:42:12;14.55;;;13.10;;
63817;SDS011;53093;55.092;73.476;2022-07-21T05:44:39;18.60;;;12.80;;
63817;SDS011;53093;55.092;73.476;2022-07-21T05:47:06;16.15;;;13.10;;
63817;SDS011;53093;55.092;73.476;2022-07-21T05:49:33;20.45;;;13.23;;
63817;SDS011;53093;55.092;73.476;2022-07-21T05:52:00;13.80;;;12.32;;
63817;SDS011;53093;55.092;73.476;2022-07-21T05:54:26;13.70;;;12.25;;
63817;SDS011;53093;55.092;73.476;2022-07-21T05:56:53;19.40;;;12.75;;
63817;SDS011;53093;55.092;73.476;2022-07-21T05:59:20;13.82;;;12.38;;
63817;SDS011;53093;55.092;73.476;2022-07-21T06:01:47;14.73;;;11.88;;
63817;SDS011;53093;55.092;73.476;2022-07-21T06:04:14;13.15;;;12.05;;
63817;SDS011;53093;55.092;73.476;2022-07-21T06:06:41;13.98;;;12.48;;
63817;SDS011;53093;55.092;73.476;2022-07-21T06:09:08;16.65;;;12.77;;
63817;SDS011;53093;55.092;73.476;2022-07-21T06:11:35;12.80;;;11.48;;
63817;SDS011;53093;55.092;73.476;2022-07-21T06:14:03;14.93;;;12.57;;
63817;SDS011;53093;55.092;73.476;2022-07-21T06:16:30;14.02;;;12.52;;
63817;SDS011;53093;55.092;73.476;2022-07-21T06:18:58;13.73;;;12.15;;
63817;SDS011;53093;55.092;73.476;2022-07-21T06:21:25;16.25;;;11.98;;
63817;SDS011;53093;55.092;73.476;2022-07-21T06:23:52;13.43;;;11.80;;
63817;SDS011;53093;55.092;73.476;2022-07-21T06:26:19;27.27;;;12.65;;
63817;SDS011;53093;55.092;73.476;2022-07-21T06:28:46;14.65;;;11.68;;
63817;SDS011;53093;55.092;73.476;2022-07-21T06:31:13;13.43;;;11.45;;
63817;SDS011;53093;55.092;73.476;2022-07-21T06:33:40;12.55;;;11.45;;
63817;SDS011;53093;55.092;73.476;2022-07-21T06:36:07;13.30;;;12.02;;
63817;SDS011;53093;55.092;73.476;2022-07-21T06:38:35;11.90;;;10.63;;
63817;SDS011;53093;55.092;73.476;2022-07-21T06:41:02;12.45;;;11.15;;
63817;SDS011;53093;55.092;73.476;2022-07-21T06:43:29;12.60;;;11.50;;
63817;SDS011;53093;55.092;73.476;2022-07-21T06:45:56;13.23;;;10.63;;
63817;SDS011;53093;55.092;73.476;2022-07-21T06:48:24;13.75;;;10.98;;
63817;SDS011;53093;55.092;73.476;2022-07-21T06:50:51;13.65;;;10.80;;
63817;SDS011;53093;55.092;73.476;2022-07-21T06:53:18;14.15;;;10.68;;
63817;SDS011;53093;55.092;73.476;2022-07-21T06:55:45;24.85;;;11.77;;
63817;SDS011;53093;55.092;73.476;2022-07-21T06:58:13;17.05;;;10.80;;
63817;SDS011;53093;55.092;73.476;2022-07-21T07:00:40;37.78;;;11.85;;
63817;SDS011;53093;55.092;73.476;2022-07-21T07:03:13;12.35;;;11.05;;
63817;SDS011;53093;55.092;73.476;2022-07-21T07:05:42;17.20;;;11.18;;
63817;SDS011;53093;55.092;73.476;2022-07-21T07:08:09;11.35;;;10.15;;
63817;SDS011;53093;55.092;73.476;2022-07-21T07:10:36;16.42;;;9.85;;
63817;SDS011;53093;55.092;73.476;2022-07-21T07:13:09;11.18;;;9.93;;
63817;SDS011;53093;55.092;73.476;2022-07-21T07:15:47;11.98;;;10.50;;
63817;SDS011;53093;55.092;73.476;2022-07-21T07:18:14;14.05;;;9.85;;
63817;SDS011;53093;55.092;73.476;2022-07-21T07:20:41;19.25;;;9.27;;
63817;SDS011;53093;55.092;73.476;2022-07-21T07:23:08;10.00;;;9.00;;
63817;SDS011;53093;55.092;73.476;2022-07-21T07:25:35;12.10;;;9.43;;
63817;SDS011;53093;55.092;73.476;2022-07-21T07:28:01;18.92;;;9.40;;
63817;SDS011;53093;55.092;73.476;2022-07-21T07:30:29;19.50;;;9.68;;
63817;SDS011;53093;55.092;73.476;2022-07-21T07:32:56;11.48;;;8.90;;
63817;SDS011;53093;55.092;73.476;2022-07-21T07:35:23;13.90;;;9.02;;
63817;SDS011;53093;55.092;73.476;2022-07-21T07:37:50;138.80;;;15.75;;
63817;SDS011;53093;55.092;73.476;2022-07-21T07:40:18;14.52;;;9.90;;
63817;SDS011;53093;55.092;73.476;2022-07-21T07:42:46;10.38;;;9.38;;
63817;SDS011;53093;55.092;73.476;2022-07-21T07:45:14;11.80;;;10.30;;
63817;SDS011;53093;55.092;73.476;2022-07-21T07:47:41;11.27;;;10.07;;
63817;SDS011;53093;55.092;73.476;2022-07-21T07:50:10;12.27;;;10.63;;
63817;SDS011;53093;55.092;73.476;2022-07-21T07:52:37;11.60;;;9.82;;
63817;SDS011;53093;55.092;73.476;2022-07-21T07:55:05;11.43;;;9.88;;
63817;SDS011;53093;55.092;73.476;2022-07-21T07:57:40;19.50;;;11.13;;
63817;SDS011;53093;55.092;73.476;2022-07-21T08:00:08;13.40;;;10.73;;
63817;SDS011;53093;55.092;73.476;2022-07-21T08:02:38;15.02;;;10.90;;
63817;SDS011;53093;55.092;73.476;2022-07-21T08:05:06;16.10;;;10.18;;
63817;SDS011;53093;55.092;73.476;2022-07-21T08:07:35;11.68;;;9.68;;
63817;SDS011;53093;55.092;73.476;2022-07-21T08:10:07;20.05;;;10.77;;
63817;SDS011;53093;55.092;73.476;2022-07-21T08:12:35;12.40;;;10.52;;
63817;SDS011;53093;55.092;73.476;2022-07-21T08:15:02;11.50;;;10.30;;
63817;SDS011;53093;55.092;73.476;2022-07-21T08:17:30;12.88;;;10.40;;
63817;SDS011;53093;55.092;73.476;2022-07-21T08:20:07;13.30;;;9.38;;
63817;SDS011;53093;55.092;73.476;2022-07-21T08:22:34;13.95;;;9.80;;
63817;SDS011;53093;55.092;73.476;2022-07-21T08:25:01;14.20;;;9.68;;
63817;SDS011;53093;55.092;73.476;2022-07-21T08:27:28;9.93;;;8.93;;
63817;SDS011;53093;55.092;73.476;2022-07-21T08:29:55;9.75;;;8.75;;
63817;SDS011;53093;55.092;73.476;2022-07-21T08:32:22;8.60;;;7.80;;
63817;SDS011;53093;55.092;73.476;2022-07-21T08:34:49;10.07;;;7.80;;
63817;SDS011;53093;55.092;73.476;2022-07-21T08:37:18;8.75;;;7.30;;
63817;SDS011;53093;55.092;73.476;2022-07-21T08:39:46;8.40;;;7.60;;
63817;SDS011;53093;55.092;73.476;2022-07-21T08:42:17;12.73;;;7.97;;
63817;SDS011;53093;55.092;73.476;2022-07-21T08:44:44;16.88;;;8.23;;
63817;SDS011;53093;55.092;73.476;2022-07-21T08:47:11;15.25;;;7.72;;
63817;SDS011;53093;55.092;73.476;2022-07-21T08:49:38;19.50;;;7.72;;
63817;SDS011;53093;55.092;73.476;2022-07-21T08:52:06;8.80;;;6.45;;
63817;SDS011;53093;55.092;73.476;2022-07-21T08:54:33;32.30;;;7.75;;
63817;SDS011;53093;55.092;73.476;2022-07-21T08:57:00;10.57;;;6.82;;
63817;SDS011;53093;55.092;73.476;2022-07-21T08:59:27;9.45;;;6.97;;
63817;SDS011;53093;55.092;73.476;2022-07-21T09:01:54;8.88;;;6.90;;
63817;SDS011;53093;55.092;73.476;2022-07-21T09:04:28;7.85;;;6.97;;
63817;SDS011;53093;55.092;73.476;2022-07-21T09:07:02;7.93;;;7.10;;
63817;SDS011;53093;55.092;73.476;2022-07-21T09:09:30;8.55;;;7.05;;
63817;SDS011;53093;55.092;73.476;2022-07-21T09:11:58;8.35;;;6.70;;
63817;SDS011;53093;55.092;73.476;2022-07-21T09:14:32;8.07;;;6.70;;
63817;SDS011;53093;55.092;73.476;2022-07-21T09:17:03;7.93;;;7.10;;
63817;SDS011;53093;55.092;73.476;2022-07-21T09:19:31;9.98;;;6.90;;
63817;SDS011;53093;55.092;73.476;2022-07-21T09:22:00;8.68;;;6.93;;
63817;SDS011;53093;55.092;73.476;2022-07-21T09:24:28;9.80;;;7.00;;
63817;SDS011;53093;55.092;73.476;2022-07-21T09:29:34;12.25;;;6.53;;
63817;SDS011;53093;55.092;73.476;2022-07-21T09:34:49;15.85;;;6.45;;
63817;SDS011;53093;55.092;73.476;2022-07-21T09:37:16;11.82;;;6.55;;
63817;SDS011;53093;55.092;73.476;2022-07-21T09:42:25;10.30;;;6.93;;
63817;SDS011;53093;55.092;73.476;2022-07-21T09:47:25;14.40;;;5.80;;
63817;SDS011;53093;55.092;73.476;2022-07-21T09:49:52;7.43;;;5.75;;
63817;SDS011;53093;55.092;73.476;2022-07-21T09:55:26;19.80;;;5.93;;
63817;SDS011;53093;55.092;73.476;2022-07-21T09:57:55;11.20;;;7.88;;
63817;SDS011;53093;55.092;73.476;2022-07-21T10:00:22;6.93;;;5.10;;
63817;SDS011;53093;55.092;73.476;2022-07-21T10:02:49;11.13;;;5.10;;
63817;SDS011;53093;55.092;73.476;2022-07-21T10:05:18;6.90;;;5.13;;
63817;SDS011;53093;55.092;73.476;2022-07-21T10:07:46;12.98;;;6.68;;
63817;SDS011;53093;55.092;73.476;2022-07-21T10:10:13;6.07;;;5.05;;
63817;SDS011;53093;55.092;73.476;2022-07-21T10:12:40;16.48;;;8.05;;
63817;SDS011;53093;55.092;73.476;2022-07-21T10:15:08;15.07;;;9.43;;
63817;SDS011;53093;55.092;73.476;2022-07-21T10:17:35;13.02;;;6.90;;
63817;SDS011;53093;55.092;73.476;2022-07-21T10:25:24;7.70;;;4.80;;
63817;SDS011;53093;55.092;73.476;2022-07-21T10:30:40;7.93;;;5.32;;
63817;SDS011;53093;55.092;73.476;2022-07-21T10:33:08;11.82;;;5.88;;
63817;SDS011;53093;55.092;73.476;2022-07-21T10:35:36;11.05;;;5.72;;
63817;SDS011;53093;55.092;73.476;2022-07-21T10:38:05;21.67;;;6.25;;
63817;SDS011;53093;55.092;73.476;2022-07-21T10:45:39;18.40;;;6.20;;
63817;SDS011;53093;55.092;73.476;2022-07-21T10:48:07;18.25;;;6.05;;
63817;SDS011;53093;55.092;73.476;2022-07-21T10:50:41;16.58;;;6.38;;
63817;SDS011;53093;55.092;73.476;2022-07-21T10:53:13;14.40;;;5.78;;
63817;SDS011;53093;55.092;73.476;2022-07-21T10:55:48;11.77;;;5.40;;
63817;SDS011;53093;55.092;73.476;2022-07-21T11:00:56;9.55;;;5.05;;
63817;SDS011;53093;55.092;73.476;2022-07-21T11:08:38;13.32;;;4.88;;
63817;SDS011;53093;55.092;73.476;2022-07-21T11:11:12;7.63;;;4.38;;
63817;SDS011;53093;55.092;73.476;2022-07-21T11:16:06;7.70;;;4.22;;
63817;SDS011;53093;55.092;73.476;2022-07-21T11:18:33;4.80;;;4.10;;
63817;SDS011;53093;55.092;73.476;2022-07-21T11:21:01;5.97;;;4.10;;
63817;SDS011;53093;55.092;73.476;2022-07-21T11:23:36;8.73;;;4.25;;
63817;SDS011;53093;55.092;73.476;2022-07-21T11:26:15;6.22;;;3.90;;
63817;SDS011;53093;55.092;73.476;2022-07-21T11:28:43;8.35;;;3.90;;
63817;SDS011;53093;55.092;73.476;2022-07-21T11:31:12;11.27;;;3.88;;
63817;SDS011;53093;55.092;73.476;2022-07-21T11:33:48;11.13;;;3.92;;
63817;SDS011;53093;55.092;73.476;2022-07-21T11:36:23;8.55;;;3.30;;
63817;SDS011;53093;55.092;73.476;2022-07-21T11:41:28;10.55;;;3.80;;
63817;SDS011;53093;55.092;73.476;2022-07-21T11:44:00;7.13;;;3.17;;
63817;SDS011;53093;55.092;73.476;2022-07-21T11:46:49;5.25;;;3.20;;
63817;SDS011;53093;55.092;73.476;2022-07-21T11:49:16;3.47;;;3.17;;
63817;SDS011;53093;55.092;73.476;2022-07-21T11:51:50;8.10;;;3.58;;
63817;SDS011;53093;55.092;73.476;2022-07-21T11:54:25;8.18;;;2.90;;
63817;SDS011;53093;55.092;73.476;2022-07-21T11:56:58;7.53;;;2.88;;
63817;SDS011;53093;55.092;73.476;2022-07-21T11:59:26;4.00;;;2.80;;
63817;SDS011;53093;55.092;73.476;2022-07-21T12:01:55;5.00;;;3.10;;
63817;SDS011;53093;55.092;73.476;2022-07-21T12:05:05;11.75;;;3.40;;
63817;SDS011;53093;55.092;73.476;2022-07-21T12:07:24;5.05;;;2.83;;
63817;SDS011;53093;55.092;73.476;2022-07-21T12:09:56;4.40;;;2.90;;
63817;SDS011;53093;55.092;73.476;2022-07-21T12:12:34;9.27;;;3.08;;
63817;SDS011;53093;55.092;73.476;2022-07-21T12:15:10;4.88;;;2.97;;
63817;SDS011;53093;55.092;73.476;2022-07-21T12:17:39;15.02;;;3.50;;
63817;SDS011;53093;55.092;73.476;2022-07-21T12:20:06;6.00;;;2.40;;
63817;SDS011;53093;55.092;73.476;2022-07-21T12:22:34;8.85;;;2.75;;
63817;SDS011;53093;55.092;73.476;2022-07-21T12:25:01;2.67;;;2.00;;
63817;SDS011;53093;55.092;73.476;2022-07-21T12:27:29;4.35;;;2.22;;
63817;SDS011;53093;55.092;73.476;2022-07-21T12:29:56;13.18;;;2.53;;
63817;SDS011;53093;55.092;73.476;2022-07-21T12:35:25;3.95;;;1.80;;
63817;SDS011;53093;55.092;73.476;2022-07-21T12:37:53;2.28;;;1.88;;
63817;SDS011;53093;55.092;73.476;2022-07-21T12:40:21;9.05;;;2.00;;
63817;SDS011;53093;55.092;73.476;2022-07-21T12:42:48;3.63;;;2.00;;
63817;SDS011;53093;55.092;73.476;2022-07-21T12:45:19;6.38;;;2.20;;
63817;SDS011;53093;55.092;73.476;2022-07-21T12:50:32;6.32;;;2.10;;
63817;SDS011;53093;55.092;73.476;2022-07-21T12:52:59;5.22;;;2.05;;
63817;SDS011;53093;55.092;73.476;2022-07-21T12:55:26;2.75;;;1.75;;
63817;SDS011;53093;55.092;73.476;2022-07-21T12:57:53;4.82;;;2.65;;
63817;SDS011;53093;55.092;73.476;2022-07-21T13:00:29;4.00;;;2.90;;
63817;SDS011;53093;55.092;73.476;2022-07-21T13:03:05;4.32;;;2.30;;
63817;SDS011;53093;55.092;73.476;2022-07-21T13:05:32;2.78;;;2.20;;
63817;SDS011;53093;55.092;73.476;2022-07-21T13:08:02;3.28;;;2.20;;
63817;SDS011;53093;55.092;73.476;2022-07-21T13:10:29;3.15;;;2.20;;
63817;SDS011;53093;55.092;73.476;2022-07-21T13:12:56;2.88;;;2.20;;
63817;SDS011;53093;55.092;73.476;2022-07-21T13:15:23;3.75;;;2.30;;
63817;SDS011;53093;55.092;73.476;2022-07-21T13:18:00;5.45;;;2.30;;
63817;SDS011;53093;55.092;73.476;2022-07-21T13:20:27;2.65;;;2.30;;
63817;SDS011;53093;55.092;73.476;2022-07-21T13:22:54;3.38;;;2.30;;
63817;SDS011;53093;55.092;73.476;2022-07-21T13:25:21;4.53;;;2.40;;
63817;SDS011;53093;55.092;73.476;2022-07-21T13:27:48;2.53;;;2.03;;
63817;SDS011;53093;55.092;73.476;2022-07-21T13:30:15;2.55;;;2.30;;
63817;SDS011;53093;55.092;73.476;2022-07-21T13:32:42;5.03;;;4.05;;
63817;SDS011;53093;55.092;73.476;2022-07-21T13:35:19;4.20;;;2.40;;
63817;SDS011;53093;55.092;73.476;2022-07-21T13:37:46;16.65;;;4.40;;
63817;SDS011;53093;55.092;73.476;2022-07-21T13:40:13;3.65;;;2.15;;
63817;SDS011;53093;55.092;73.476;2022-07-21T13:42:40;3.95;;;3.58;;
63817;SDS011;53093;55.092;73.476;2022-07-21T13:45:07;7.55;;;6.75;;
63817;SDS011;53093;55.092;73.476;2022-07-21T13:47:37;12.40;;;3.22;;
63817;SDS011;53093;55.092;73.476;2022-07-21T13:50:04;2.58;;;2.20;;
63817;SDS011;53093;55.092;73.476;2022-07-21T13:52:32;2.90;;;2.10;;
63817;SDS011;53093;55.092;73.476;2022-07-21T13:55:00;3.28;;;2.05;;
63817;SDS011;53093;55.092;73.476;2022-07-21T13:57:27;4.47;;;2.60;;
63817;SDS011;53093;55.092;73.476;2022-07-21T13:59:53;2.42;;;2.00;;
63817;SDS011;53093;55.092;73.476;2022-07-21T14:02:20;3.13;;;2.17;;
63817;SDS011;53093;55.092;73.476;2022-07-21T14:04:47;5.35;;;2.35;;
63817;SDS011;53093;55.092;73.476;2022-07-21T14:07:21;2.30;;;1.80;;
63817;SDS011;53093;55.092;73.476;2022-07-21T14:09:48;4.82;;;2.00;;
63817;SDS011;53093;55.092;73.476;2022-07-21T14:12:15;4.97;;;2.20;;
63817;SDS011;53093;55.092;73.476;2022-07-21T14:14:42;4.97;;;2.30;;
63817;SDS011;53093;55.092;73.476;2022-07-21T14:17:15;6.07;;;2.55;;
63817;SDS011;53093;55.092;73.476;2022-07-21T14:19:52;5.10;;;2.65;;
63817;SDS011;53093;55.092;73.476;2022-07-21T14:22:19;4.57;;;2.30;;
63817;SDS011;53093;55.092;73.476;2022-07-21T14:24:48;3.40;;;2.65;;
63817;SDS011;53093;55.092;73.476;2022-07-21T14:27:33;3.83;;;2.58;;
63817;SDS011;53093;55.092;73.476;2022-07-21T14:30:00;3.05;;;2.38;;
63817;SDS011;53093;55.092;73.476;2022-07-21T14:32:28;3.08;;;2.47;;
63817;SDS011;53093;55.092;73.476;2022-07-21T14:35:00;3.25;;;2.15;;
63817;SDS011;53093;55.092;73.476;2022-07-21T14:37:27;5.65;;;2.75;;
63817;SDS011;53093;55.092;73.476;2022-07-21T14:39:54;7.28;;;2.72;;
63817;SDS011;53093;55.092;73.476;2022-07-21T14:42:21;7.63;;;2.70;;
63817;SDS011;53093;55.092;73.476;2022-07-21T14:44:50;6.30;;;2.90;;
63817;SDS011;53093;55.092;73.476;2022-07-21T14:47:17;6.43;;;3.03;;
63817;SDS011;53093;55.092;73.476;2022-07-21T14:49:44;6.15;;;5.00;;
63817;SDS011;53093;55.092;73.476;2022-07-21T14:52:11;5.70;;;3.88;;
63817;SDS011;53093;55.092;73.476;2022-07-21T14:54:49;3.63;;;2.70;;
63817;SDS011;53093;55.092;73.476;2022-07-21T14:57:16;2.70;;;2.50;;
63817;SDS011;53093;55.092;73.476;2022-07-21T14:59:43;3.35;;;2.55;;
63817;SDS011;53093;55.092;73.476;2022-07-21T15:02:10;8.07;;;2.67;;
63817;SDS011;53093;55.092;73.476;2022-07-21T15:04:37;3.83;;;2.70;;
63817;SDS011;53093;55.092;73.476;2022-07-21T15:07:04;7.50;;;2.95;;
63817;SDS011;53093;55.092;73.476;2022-07-21T15:09:33;4.40;;;2.60;;
63817;SDS011;53093;55.092;73.476;2022-07-21T15:12:00;5.97;;;2.75;;